sensor_id;sensor_type;location;lat;lon;timestamp;temperature;humidity
22852;DHT22;11592;45.460;9.240;2023-03-23T00:01:25;16.10;91.90
22852;DHT22;11592;45.460;9.240;2023-03-23T00:03:53;16.20;91.90
22852;DHT22;11592;45.460;9.240;2023-03-23T00:06:24;16.20;92.00
22852;DHT22;11592;45.460;9.240;2023-03-23T00:08:53;16.10;92.10
22852;DHT22;11592;45.460;9.240;2023-03-23T00:11:26;16.20;92.50
22852;DHT22;11592;45.460;9.240;2023-03-23T00:13:55;16.10;92.40
22852;DHT22;11592;45.460;9.240;2023-03-23T00:16:24;16.00;92.60
22852;DHT22;11592;45.460;9.240;2023-03-23T00:19:03;16.00;92.80
22852;DHT22;11592;45.460;9.240;2023-03-23T00:21:32;16.00;93.00
22852;DHT22;11592;45.460;9.240;2023-03-23T00:24:07;16.00;93.10
22852;DHT22;11592;45.460;9.240;2023-03-23T00:26:38;16.00;93.10
22852;DHT22;11592;45.460;9.240;2023-03-23T00:29:17;16.00;93.20
22852;DHT22;11592;45.460;9.240;2023-03-23T00:31:45;15.90;93.30
22852;DHT22;11592;45.460;9.240;2023-03-23T00:34:23;15.80;93.60
22852;DHT22;11592;45.460;9.240;2023-03-23T00:36:54;15.70;93.90
22852;DHT22;11592;45.460;9.240;2023-03-23T00:39:27;15.70;94.00
22852;DHT22;11592;45.460;9.240;2023-03-23T00:41:54;15.70;94.10
22852;DHT22;11592;45.460;9.240;2023-03-23T00:44:30;15.60;94.40
22852;DHT22;11592;45.460;9.240;2023-03-23T00:46:57;15.60;94.50
22852;DHT22;11592;45.460;9.240;2023-03-23T00:49:25;15.50;94.80
22852;DHT22;11592;45.460;9.240;2023-03-23T00:51:56;15.60;94.80
22852;DHT22;11592;45.460;9.240;2023-03-23T00:54:23;15.60;94.90
22852;DHT22;11592;45.460;9.240;2023-03-23T00:56:49;15.30;95.30
22852;DHT22;11592;45.460;9.240;2023-03-23T00:59:15;15.30;95.40
22852;DHT22;11592;45.460;9.240;2023-03-23T01:01:41;15.20;95.70
22852;DHT22;11592;45.460;9.240;2023-03-23T01:04:08;15.00;95.90
22852;DHT22;11592;45.460;9.240;2023-03-23T01:06:40;15.00;96.20
22852;DHT22;11592;45.460;9.240;2023-03-23T01:09:15;15.00;96.20
22852;DHT22;11592;45.460;9.240;2023-03-23T01:11:46;15.10;96.20
22852;DHT22;11592;45.460;9.240;2023-03-23T01:14:14;15.00;96.30
22852;DHT22;11592;45.460;9.240;2023-03-23T01:16:41;15.00;96.40
22852;DHT22;11592;45.460;9.240;2023-03-23T01:19:07;15.00;96.60
22852;DHT22;11592;45.460;9.240;2023-03-23T01:21:33;14.90;96.70
22852;DHT22;11592;45.460;9.240;2023-03-23T01:23:58;14.80;96.90
22852;DHT22;11592;45.460;9.240;2023-03-23T01:26:27;14.90;97.00
22852;DHT22;11592;45.460;9.240;2023-03-23T01:28:53;14.80;97.00
22852;DHT22;11592;45.460;9.240;2023-03-23T01:31:21;14.80;97.20
22852;DHT22;11592;45.460;9.240;2023-03-23T01:33:48;14.90;97.20
22852;DHT22;11592;45.460;9.240;2023-03-23T01:36:20;15.10;97.10
22852;DHT22;11592;45.460;9.240;2023-03-23T01:38:47;15.00;97.20
22852;DHT22;11592;45.460;9.240;2023-03-23T01:41:14;14.90;97.60
22852;DHT22;11592;45.460;9.240;2023-03-23T01:46:34;14.90;97.70
22852;DHT22;11592;45.460;9.240;2023-03-23T01:49:07;14.90;97.80
22852;DHT22;11592;45.460;9.240;2023-03-23T01:51:59;15.10;97.80
22852;DHT22;11592;45.460;9.240;2023-03-23T01:54:24;15.20;97.70
22852;DHT22;11592;45.460;9.240;2023-03-23T01:57:14;15.30;97.60
22852;DHT22;11592;45.460;9.240;2023-03-23T01:59:43;15.10;98.00
22852;DHT22;11592;45.460;9.240;2023-03-23T02:02:11;15.00;98.20
22852;DHT22;11592;45.460;9.240;2023-03-23T02:04:39;15.00;98.40
22852;DHT22;11592;45.460;9.240;2023-03-23T02:07:07;14.90;98.50
22852;DHT22;11592;45.460;9.240;2023-03-23T02:09:33;15.00;98.70
22852;DHT22;11592;45.460;9.240;2023-03-23T02:11:59;15.00;99.00
22852;DHT22;11592;45.460;9.240;2023-03-23T02:14:28;15.00;98.70
22852;DHT22;11592;45.460;9.240;2023-03-23T02:19:41;15.10;98.90
22852;DHT22;11592;45.460;9.240;2023-03-23T02:33:33;14.60;99.70
22852;DHT22;11592;45.460;9.240;2023-03-23T02:39:00;14.70;99.70
22852;DHT22;11592;45.460;9.240;2023-03-23T02:41:31;14.70;99.90
22852;DHT22;11592;45.460;9.240;2023-03-23T02:44:02;14.70;99.90
22852;DHT22;11592;45.460;9.240;2023-03-23T02:46:28;14.80;99.90
22852;DHT22;11592;45.460;9.240;2023-03-23T02:48:55;14.80;99.90
22852;DHT22;11592;45.460;9.240;2023-03-23T02:51:23;14.80;99.90
22852;DHT22;11592;45.460;9.240;2023-03-23T02:53:52;14.70;99.90
22852;DHT22;11592;45.460;9.240;2023-03-23T02:56:20;14.60;99.90
22852;DHT22;11592;45.460;9.240;2023-03-23T02:58:47;14.60;99.90
22852;DHT22;11592;45.460;9.240;2023-03-23T03:03:55;14.60;99.90
22852;DHT22;11592;45.460;9.240;2023-03-23T03:09:49;14.60;99.90
22852;DHT22;11592;45.460;9.240;2023-03-23T03:17:31;14.50;99.90
22852;DHT22;11592;45.460;9.240;2023-03-23T03:19:59;14.40;99.90
22852;DHT22;11592;45.460;9.240;2023-03-23T03:22:32;14.40;99.90
22852;DHT22;11592;45.460;9.240;2023-03-23T03:25:00;14.40;99.90
22852;DHT22;11592;45.460;9.240;2023-03-23T03:27:26;14.30;99.90
22852;DHT22;11592;45.460;9.240;2023-03-23T03:29:55;14.30;99.90
22852;DHT22;11592;45.460;9.240;2023-03-23T03:32:30;14.30;99.90
22852;DHT22;11592;45.460;9.240;2023-03-23T03:35:00;14.40;99.90
22852;DHT22;11592;45.460;9.240;2023-03-23T03:37:26;14.40;99.90
22852;DHT22;11592;45.460;9.240;2023-03-23T03:39:52;14.40;99.90
22852;DHT22;11592;45.460;9.240;2023-03-23T03:42:17;14.40;99.90
22852;DHT22;11592;45.460;9.240;2023-03-23T03:44:43;14.30;99.90
22852;DHT22;11592;45.460;9.240;2023-03-23T03:47:09;14.20;99.90
22852;DHT22;11592;45.460;9.240;2023-03-23T03:49:34;14.30;99.90
22852;DHT22;11592;45.460;9.240;2023-03-23T03:52:01;14.30;99.90
22852;DHT22;11592;45.460;9.240;2023-03-23T03:54:27;14.20;99.90
22852;DHT22;11592;45.460;9.240;2023-03-23T03:56:52;14.20;99.90
22852;DHT22;11592;45.460;9.240;2023-03-23T03:59:23;14.30;99.90
22852;DHT22;11592;45.460;9.240;2023-03-23T04:01:49;14.30;99.90
22852;DHT22;11592;45.460;9.240;2023-03-23T04:04:19;14.30;99.90
22852;DHT22;11592;45.460;9.240;2023-03-23T04:06:46;14.20;99.90
22852;DHT22;11592;45.460;9.240;2023-03-23T04:09:14;14.10;99.90
22852;DHT22;11592;45.460;9.240;2023-03-23T04:11:40;14.10;99.90
22852;DHT22;11592;45.460;9.240;2023-03-23T04:14:05;14.10;99.90
22852;DHT22;11592;45.460;9.240;2023-03-23T04:16:32;14.10;99.90
22852;DHT22;11592;45.460;9.240;2023-03-23T04:19:00;14.20;99.90
22852;DHT22;11592;45.460;9.240;2023-03-23T04:21:26;14.20;99.90
22852;DHT22;11592;45.460;9.240;2023-03-23T04:23:55;14.20;99.90
22852;DHT22;11592;45.460;9.240;2023-03-23T04:26:26;14.10;99.90
22852;DHT22;11592;45.460;9.240;2023-03-23T04:28:54;14.10;99.90
22852;DHT22;11592;45.460;9.240;2023-03-23T04:31:21;14.00;99.90
22852;DHT22;11592;45.460;9.240;2023-03-23T04:33:51;14.00;99.90
22852;DHT22;11592;45.460;9.240;2023-03-23T04:36:18;14.00;99.90
22852;DHT22;11592;45.460;9.240;2023-03-23T04:38:44;13.90;99.90
22852;DHT22;11592;45.460;9.240;2023-03-23T04:41:09;13.90;99.90
22852;DHT22;11592;45.460;9.240;2023-03-23T04:43:35;13.90;99.90
22852;DHT22;11592;45.460;9.240;2023-03-23T04:46:07;13.80;99.90
22852;DHT22;11592;45.460;9.240;2023-03-23T04:48:34;13.80;99.90
22852;DHT22;11592;45.460;9.240;2023-03-23T04:51:02;13.80;99.90
22852;DHT22;11592;45.460;9.240;2023-03-23T04:53:30;13.80;99.90
22852;DHT22;11592;45.460;9.240;2023-03-23T04:55:56;13.70;99.90
22852;DHT22;11592;45.460;9.240;2023-03-23T04:58:22;13.80;99.90
22852;DHT22;11592;45.460;9.240;2023-03-23T05:00:50;13.70;99.90
22852;DHT22;11592;45.460;9.240;2023-03-23T05:03:17;13.70;99.90
22852;DHT22;11592;45.460;9.240;2023-03-23T05:05:44;13.70;99.90
22852;DHT22;11592;45.460;9.240;2023-03-23T05:08:13;13.70;99.90
22852;DHT22;11592;45.460;9.240;2023-03-23T05:10:39;13.70;99.90
22852;DHT22;11592;45.460;9.240;2023-03-23T05:13:05;13.70;99.90
22852;DHT22;11592;45.460;9.240;2023-03-23T05:15:31;13.60;99.90
22852;DHT22;11592;45.460;9.240;2023-03-23T05:17:57;13.60;99.90
22852;DHT22;11592;45.460;9.240;2023-03-23T05:20:23;13.60;99.90
22852;DHT22;11592;45.460;9.240;2023-03-23T05:22:50;13.60;99.90
22852;DHT22;11592;45.460;9.240;2023-03-23T05:25:17;13.60;99.90
22852;DHT22;11592;45.460;9.240;2023-03-23T05:27:46;13.80;99.90
22852;DHT22;11592;45.460;9.240;2023-03-23T05:30:18;13.80;99.90
22852;DHT22;11592;45.460;9.240;2023-03-23T05:32:44;13.70;99.90
22852;DHT22;11592;45.460;9.240;2023-03-23T05:35:12;13.70;99.90
22852;DHT22;11592;45.460;9.240;2023-03-23T05:37:38;13.80;99.90
22852;DHT22;11592;45.460;9.240;2023-03-23T05:40:05;13.80;99.90
22852;DHT22;11592;45.460;9.240;2023-03-23T05:42:33;13.90;99.90
22852;DHT22;11592;45.460;9.240;2023-03-23T05:45:00;13.80;99.90
22852;DHT22;11592;45.460;9.240;2023-03-23T05:47:26;13.70;99.90
22852;DHT22;11592;45.460;9.240;2023-03-23T05:49:52;13.70;99.90
22852;DHT22;11592;45.460;9.240;2023-03-23T05:52:19;13.70;99.90
22852;DHT22;11592;45.460;9.240;2023-03-23T05:54:46;13.80;99.90
22852;DHT22;11592;45.460;9.240;2023-03-23T05:57:12;13.70;99.90
22852;DHT22;11592;45.460;9.240;2023-03-23T05:59:37;13.70;99.90
22852;DHT22;11592;45.460;9.240;2023-03-23T06:02:04;13.60;99.90
22852;DHT22;11592;45.460;9.240;2023-03-23T06:04:30;13.70;99.90
22852;DHT22;11592;45.460;9.240;2023-03-23T06:07:00;13.80;99.90
22852;DHT22;11592;45.460;9.240;2023-03-23T06:09:26;13.80;99.90
22852;DHT22;11592;45.460;9.240;2023-03-23T06:11:51;13.70;99.90
22852;DHT22;11592;45.460;9.240;2023-03-23T06:14:17;13.80;99.90
22852;DHT22;11592;45.460;9.240;2023-03-23T06:16:43;13.70;99.90
22852;DHT22;11592;45.460;9.240;2023-03-23T06:19:09;13.90;99.90
22852;DHT22;11592;45.460;9.240;2023-03-23T06:21:36;13.80;99.90
22852;DHT22;11592;45.460;9.240;2023-03-23T06:24:02;13.90;99.90
22852;DHT22;11592;45.460;9.240;2023-03-23T06:26:34;13.80;99.90
22852;DHT22;11592;45.460;9.240;2023-03-23T06:29:00;13.70;99.90
22852;DHT22;11592;45.460;9.240;2023-03-23T06:31:27;13.90;99.90
22852;DHT22;11592;45.460;9.240;2023-03-23T06:33:53;14.10;99.90
22852;DHT22;11592;45.460;9.240;2023-03-23T06:36:19;14.30;99.90
22852;DHT22;11592;45.460;9.240;2023-03-23T06:38:45;14.30;99.90
22852;DHT22;11592;45.460;9.240;2023-03-23T06:41:11;14.20;99.90
22852;DHT22;11592;45.460;9.240;2023-03-23T06:43:37;14.20;99.90
22852;DHT22;11592;45.460;9.240;2023-03-23T06:46:05;14.30;99.90
22852;DHT22;11592;45.460;9.240;2023-03-23T06:48:31;14.30;99.90
22852;DHT22;11592;45.460;9.240;2023-03-23T06:50:57;14.30;99.90
22852;DHT22;11592;45.460;9.240;2023-03-23T06:53:24;14.50;99.90
22852;DHT22;11592;45.460;9.240;2023-03-23T06:55:50;14.50;99.90
22852;DHT22;11592;45.460;9.240;2023-03-23T06:58:16;14.30;99.90
22852;DHT22;11592;45.460;9.240;2023-03-23T07:00:42;14.20;99.90
22852;DHT22;11592;45.460;9.240;2023-03-23T07:03:08;14.30;99.90
22852;DHT22;11592;45.460;9.240;2023-03-23T07:05:34;14.40;99.90
22852;DHT22;11592;45.460;9.240;2023-03-23T07:08:02;14.40;99.90
22852;DHT22;11592;45.460;9.240;2023-03-23T07:10:28;14.30;99.90
22852;DHT22;11592;45.460;9.240;2023-03-23T07:12:54;14.50;99.90
22852;DHT22;11592;45.460;9.240;2023-03-23T07:15:19;14.70;99.90
22852;DHT22;11592;45.460;9.240;2023-03-23T07:17:47;14.70;99.90
22852;DHT22;11592;45.460;9.240;2023-03-23T07:20:13;14.70;99.90
22852;DHT22;11592;45.460;9.240;2023-03-23T07:22:40;14.70;99.90
22852;DHT22;11592;45.460;9.240;2023-03-23T07:25:07;14.80;99.90
22852;DHT22;11592;45.460;9.240;2023-03-23T07:27:33;14.60;99.90
22852;DHT22;11592;45.460;9.240;2023-03-23T07:29:59;14.50;99.90
22852;DHT22;11592;45.460;9.240;2023-03-23T07:32:25;14.40;99.90
22852;DHT22;11592;45.460;9.240;2023-03-23T07:34:50;14.40;99.90
22852;DHT22;11592;45.460;9.240;2023-03-23T07:37:17;14.50;99.90
22852;DHT22;11592;45.460;9.240;2023-03-23T07:39:43;14.70;99.90
22852;DHT22;11592;45.460;9.240;2023-03-23T07:42:09;14.60;99.90
22852;DHT22;11592;45.460;9.240;2023-03-23T07:44:35;14.80;99.90
22852;DHT22;11592;45.460;9.240;2023-03-23T07:47:02;14.90;99.90
22852;DHT22;11592;45.460;9.240;2023-03-23T07:49:28;14.90;99.90
22852;DHT22;11592;45.460;9.240;2023-03-23T07:51:56;14.90;99.90
22852;DHT22;11592;45.460;9.240;2023-03-23T07:54:22;14.90;99.90
22852;DHT22;11592;45.460;9.240;2023-03-23T07:56:47;15.00;99.90
22852;DHT22;11592;45.460;9.240;2023-03-23T07:59:13;14.90;99.90
22852;DHT22;11592;45.460;9.240;2023-03-23T08:01:39;14.80;99.90
22852;DHT22;11592;45.460;9.240;2023-03-23T08:04:05;14.70;99.90
22852;DHT22;11592;45.460;9.240;2023-03-23T08:06:35;14.80;99.90
22852;DHT22;11592;45.460;9.240;2023-03-23T08:09:02;14.90;99.90
22852;DHT22;11592;45.460;9.240;2023-03-23T08:11:32;15.00;99.90
22852;DHT22;11592;45.460;9.240;2023-03-23T08:13:58;15.10;99.90
22852;DHT22;11592;45.460;9.240;2023-03-23T08:16:24;15.20;99.90
22852;DHT22;11592;45.460;9.240;2023-03-23T08:18:50;15.50;99.90
22852;DHT22;11592;45.460;9.240;2023-03-23T08:21:17;15.30;99.90
22852;DHT22;11592;45.460;9.240;2023-03-23T08:23:43;15.40;99.90
22852;DHT22;11592;45.460;9.240;2023-03-23T08:26:09;15.30;99.90
22852;DHT22;11592;45.460;9.240;2023-03-23T08:28:36;15.20;99.90
22852;DHT22;11592;45.460;9.240;2023-03-23T08:31:07;15.30;99.90
22852;DHT22;11592;45.460;9.240;2023-03-23T08:33:33;15.20;99.90
22852;DHT22;11592;45.460;9.240;2023-03-23T08:35:59;15.10;99.90
22852;DHT22;11592;45.460;9.240;2023-03-23T08:38:27;15.00;99.90
22852;DHT22;11592;45.460;9.240;2023-03-23T08:40:58;15.00;99.90
22852;DHT22;11592;45.460;9.240;2023-03-23T08:43:24;15.20;99.90
22852;DHT22;11592;45.460;9.240;2023-03-23T08:45:50;15.50;99.90
22852;DHT22;11592;45.460;9.240;2023-03-23T08:48:17;15.60;99.90
22852;DHT22;11592;45.460;9.240;2023-03-23T08:50:43;15.70;99.90
22852;DHT22;11592;45.460;9.240;2023-03-23T08:53:09;15.70;99.90
22852;DHT22;11592;45.460;9.240;2023-03-23T08:55:35;15.60;99.90
22852;DHT22;11592;45.460;9.240;2023-03-23T08:58:01;15.60;99.90
22852;DHT22;11592;45.460;9.240;2023-03-23T09:00:29;15.60;99.90
22852;DHT22;11592;45.460;9.240;2023-03-23T09:02:55;15.30;99.90
22852;DHT22;11592;45.460;9.240;2023-03-23T09:05:23;15.20;99.90
22852;DHT22;11592;45.460;9.240;2023-03-23T09:07:55;15.30;99.90
22852;DHT22;11592;45.460;9.240;2023-03-23T09:10:22;15.20;99.90
22852;DHT22;11592;45.460;9.240;2023-03-23T09:12:52;15.20;99.90
22852;DHT22;11592;45.460;9.240;2023-03-23T09:15:18;15.30;99.90
22852;DHT22;11592;45.460;9.240;2023-03-23T09:17:47;15.40;99.90
22852;DHT22;11592;45.460;9.240;2023-03-23T09:20:17;15.60;99.90
22852;DHT22;11592;45.460;9.240;2023-03-23T09:22:46;15.70;99.90
22852;DHT22;11592;45.460;9.240;2023-03-23T09:25:14;15.50;99.90
22852;DHT22;11592;45.460;9.240;2023-03-23T09:27:41;15.50;99.90
22852;DHT22;11592;45.460;9.240;2023-03-23T09:30:10;15.60;99.90
22852;DHT22;11592;45.460;9.240;2023-03-23T09:32:37;15.70;99.90
22852;DHT22;11592;45.460;9.240;2023-03-23T09:35:05;15.80;99.90
22852;DHT22;11592;45.460;9.240;2023-03-23T09:37:36;16.10;99.90
22852;DHT22;11592;45.460;9.240;2023-03-23T09:40:03;16.00;99.90
22852;DHT22;11592;45.460;9.240;2023-03-23T09:46:15;16.10;99.90
22852;DHT22;11592;45.460;9.240;2023-03-23T09:48:43;16.20;99.90
22852;DHT22;11592;45.460;9.240;2023-03-23T09:53:54;16.50;99.90
22852;DHT22;11592;45.460;9.240;2023-03-23T09:56:22;16.40;99.90
22852;DHT22;11592;45.460;9.240;2023-03-23T09:58:58;16.60;99.90
22852;DHT22;11592;45.460;9.240;2023-03-23T10:01:32;16.70;99.90
22852;DHT22;11592;45.460;9.240;2023-03-23T10:06:37;16.50;99.90
22852;DHT22;11592;45.460;9.240;2023-03-23T10:09:05;16.60;99.90
22852;DHT22;11592;45.460;9.240;2023-03-23T10:20:09;17.10;99.90
22852;DHT22;11592;45.460;9.240;2023-03-23T10:22:47;17.30;99.90
22852;DHT22;11592;45.460;9.240;2023-03-23T10:25:16;17.30;99.90
22852;DHT22;11592;45.460;9.240;2023-03-23T10:27:52;17.40;99.90
22852;DHT22;11592;45.460;9.240;2023-03-23T10:30:38;17.60;99.90
22852;DHT22;11592;45.460;9.240;2023-03-23T10:33:10;17.70;99.90
22852;DHT22;11592;45.460;9.240;2023-03-23T10:36:05;17.80;99.90
22852;DHT22;11592;45.460;9.240;2023-03-23T10:39:00;18.20;99.90
22852;DHT22;11592;45.460;9.240;2023-03-23T10:41:23;18.60;99.90
22852;DHT22;11592;45.460;9.240;2023-03-23T10:43:49;18.50;99.90
22852;DHT22;11592;45.460;9.240;2023-03-23T10:49:10;18.70;99.90
22852;DHT22;11592;45.460;9.240;2023-03-23T10:51:44;19.20;99.90
22852;DHT22;11592;45.460;9.240;2023-03-23T10:54:12;19.50;99.90
22852;DHT22;11592;45.460;9.240;2023-03-23T10:56:43;19.40;99.90
22852;DHT22;11592;45.460;9.240;2023-03-23T10:59:17;19.60;99.90
22852;DHT22;11592;45.460;9.240;2023-03-23T11:01:48;19.50;99.90
22852;DHT22;11592;45.460;9.240;2023-03-23T11:04:16;19.90;99.90
22852;DHT22;11592;45.460;9.240;2023-03-23T11:06:49;20.40;99.90
22852;DHT22;11592;45.460;9.240;2023-03-23T11:09:18;20.40;99.90
22852;DHT22;11592;45.460;9.240;2023-03-23T11:11:54;20.10;99.90
22852;DHT22;11592;45.460;9.240;2023-03-23T11:14:31;20.00;99.90
22852;DHT22;11592;45.460;9.240;2023-03-23T11:17:03;20.20;99.90
22852;DHT22;11592;45.460;9.240;2023-03-23T11:19:31;20.40;99.90
22852;DHT22;11592;45.460;9.240;2023-03-23T11:22:25;20.50;99.90
22852;DHT22;11592;45.460;9.240;2023-03-23T11:24:58;21.00;99.90
22852;DHT22;11592;45.460;9.240;2023-03-23T11:27:25;21.50;99.90
22852;DHT22;11592;45.460;9.240;2023-03-23T11:32:22;22.20;99.90
22852;DHT22;11592;45.460;9.240;2023-03-23T11:34:52;21.60;99.90
22852;DHT22;11592;45.460;9.240;2023-03-23T11:39:59;22.40;99.90
22852;DHT22;11592;45.460;9.240;2023-03-23T11:42:47;22.60;99.90
22852;DHT22;11592;45.460;9.240;2023-03-23T11:47:58;23.20;99.90
22852;DHT22;11592;45.460;9.240;2023-03-23T11:51:15;23.20;99.20
22852;DHT22;11592;45.460;9.240;2023-03-23T11:53:53;22.50;99.20
22852;DHT22;11592;45.460;9.240;2023-03-23T11:58:53;20.90;99.90
22852;DHT22;11592;45.460;9.240;2023-03-23T12:06:30;22.30;99.90
22852;DHT22;11592;45.460;9.240;2023-03-23T12:09:15;23.20;99.30
22852;DHT22;11592;45.460;9.240;2023-03-23T12:19:51;26.60;95.20
22852;DHT22;11592;45.460;9.240;2023-03-23T12:25:12;28.10;92.20
22852;DHT22;11592;45.460;9.240;2023-03-23T12:27:49;29.40;89.00
22852;DHT22;11592;45.460;9.240;2023-03-23T12:33:13;31.30;83.20
22852;DHT22;11592;45.460;9.240;2023-03-23T12:41:20;33.30;69.50
22852;DHT22;11592;45.460;9.240;2023-03-23T12:43:52;33.10;67.60
22852;DHT22;11592;45.460;9.240;2023-03-23T12:49:14;32.40;66.60
22852;DHT22;11592;45.460;9.240;2023-03-23T12:52:02;32.90;66.50
22852;DHT22;11592;45.460;9.240;2023-03-23T12:54:41;34.30;62.90
22852;DHT22;11592;45.460;9.240;2023-03-23T12:57:16;34.20;62.60
22852;DHT22;11592;45.460;9.240;2023-03-23T13:02:42;33.10;62.50
22852;DHT22;11592;45.460;9.240;2023-03-23T13:05:13;33.70;60.50
22852;DHT22;11592;45.460;9.240;2023-03-23T13:07:46;34.80;59.30
22852;DHT22;11592;45.460;9.240;2023-03-23T13:12:48;36.30;53.50
22852;DHT22;11592;45.460;9.240;2023-03-23T13:18:24;35.80;53.70
22852;DHT22;11592;45.460;9.240;2023-03-23T13:23:53;37.10;51.00
22852;DHT22;11592;45.460;9.240;2023-03-23T13:26:21;36.80;50.90
22852;DHT22;11592;45.460;9.240;2023-03-23T13:31:27;36.50;49.50
22852;DHT22;11592;45.460;9.240;2023-03-23T13:34:18;36.30;49.80
22852;DHT22;11592;45.460;9.240;2023-03-23T13:36:56;35.50;50.50
22852;DHT22;11592;45.460;9.240;2023-03-23T13:39:29;35.40;51.20
22852;DHT22;11592;45.460;9.240;2023-03-23T13:42:03;35.60;50.60
22852;DHT22;11592;45.460;9.240;2023-03-23T13:44:43;35.70;49.60
22852;DHT22;11592;45.460;9.240;2023-03-23T13:49:54;36.20;48.40
22852;DHT22;11592;45.460;9.240;2023-03-23T14:05:31;28.00;59.10
22852;DHT22;11592;45.460;9.240;2023-03-23T14:08:10;26.50;62.60
22852;DHT22;11592;45.460;9.240;2023-03-23T14:11:10;25.60;65.30
22852;DHT22;11592;45.460;9.240;2023-03-23T14:16:51;24.70;71.40
22852;DHT22;11592;45.460;9.240;2023-03-23T14:19:24;24.30;70.70
22852;DHT22;11592;45.460;9.240;2023-03-23T14:21:58;23.90;72.70
22852;DHT22;11592;45.460;9.240;2023-03-23T14:24:38;23.50;74.80
22852;DHT22;11592;45.460;9.240;2023-03-23T14:27:22;23.50;75.70
22852;DHT22;11592;45.460;9.240;2023-03-23T14:30:06;23.20;77.80
22852;DHT22;11592;45.460;9.240;2023-03-23T14:32:32;23.00;78.80
22852;DHT22;11592;45.460;9.240;2023-03-23T14:35:04;22.80;80.80
22852;DHT22;11592;45.460;9.240;2023-03-23T14:37:31;22.80;81.40
22852;DHT22;11592;45.460;9.240;2023-03-23T14:39:58;22.70;82.40
22852;DHT22;11592;45.460;9.240;2023-03-23T14:42:30;23.00;82.60
22852;DHT22;11592;45.460;9.240;2023-03-23T14:44:57;23.30;82.20
22852;DHT22;11592;45.460;9.240;2023-03-23T14:47:26;23.30;82.40
22852;DHT22;11592;45.460;9.240;2023-03-23T14:49:57;23.40;82.10
22852;DHT22;11592;45.460;9.240;2023-03-23T14:52:27;23.40;82.50
22852;DHT22;11592;45.460;9.240;2023-03-23T14:54:53;23.30;82.50
22852;DHT22;11592;45.460;9.240;2023-03-23T14:57:29;23.00;83.40
22852;DHT22;11592;45.460;9.240;2023-03-23T14:59:56;22.80;85.40
22852;DHT22;11592;45.460;9.240;2023-03-23T15:02:32;22.90;85.50
22852;DHT22;11592;45.460;9.240;2023-03-23T15:05:14;23.00;85.70
22852;DHT22;11592;45.460;9.240;2023-03-23T15:07:43;23.00;84.70
22852;DHT22;11592;45.460;9.240;2023-03-23T15:10:16;22.40;86.30
22852;DHT22;11592;45.460;9.240;2023-03-23T15:12:47;22.30;87.20
22852;DHT22;11592;45.460;9.240;2023-03-23T15:15:40;22.20;87.60
22852;DHT22;11592;45.460;9.240;2023-03-23T15:18:31;22.00;88.10
22852;DHT22;11592;45.460;9.240;2023-03-23T15:20:58;21.90;88.50
22852;DHT22;11592;45.460;9.240;2023-03-23T15:23:32;22.00;89.20
22852;DHT22;11592;45.460;9.240;2023-03-23T15:26:03;21.90;89.70
22852;DHT22;11592;45.460;9.240;2023-03-23T15:28:32;22.00;89.50
22852;DHT22;11592;45.460;9.240;2023-03-23T15:31:04;21.80;90.00
22852;DHT22;11592;45.460;9.240;2023-03-23T15:33:35;22.00;90.20
22852;DHT22;11592;45.460;9.240;2023-03-23T15:36:24;22.20;89.70
22852;DHT22;11592;45.460;9.240;2023-03-23T15:38:49;22.30;89.70
22852;DHT22;11592;45.460;9.240;2023-03-23T15:41:26;22.10;90.00
22852;DHT22;11592;45.460;9.240;2023-03-23T15:43:55;22.20;90.20
22852;DHT22;11592;45.460;9.240;2023-03-23T15:46:26;22.50;89.50
22852;DHT22;11592;45.460;9.240;2023-03-23T15:49:08;23.10;88.80
22852;DHT22;11592;45.460;9.240;2023-03-23T15:51:36;24.00;85.00
22852;DHT22;11592;45.460;9.240;2023-03-23T15:54:02;24.70;84.00
22852;DHT22;11592;45.460;9.240;2023-03-23T15:56:28;25.80;81.50
22852;DHT22;11592;45.460;9.240;2023-03-23T15:58:55;26.40;79.50
22852;DHT22;11592;45.460;9.240;2023-03-23T16:01:25;26.60;77.90
22852;DHT22;11592;45.460;9.240;2023-03-23T16:04:13;25.40;79.30
22852;DHT22;11592;45.460;9.240;2023-03-23T16:06:41;24.20;82.80
22852;DHT22;11592;45.460;9.240;2023-03-23T16:09:16;24.10;84.40
22852;DHT22;11592;45.460;9.240;2023-03-23T16:11:44;24.10;83.90
22852;DHT22;11592;45.460;9.240;2023-03-23T16:14:11;24.20;84.30
22852;DHT22;11592;45.460;9.240;2023-03-23T16:16:47;24.80;83.30
22852;DHT22;11592;45.460;9.240;2023-03-23T16:19:17;25.20;82.20
22852;DHT22;11592;45.460;9.240;2023-03-23T16:21:45;25.90;80.30
22852;DHT22;11592;45.460;9.240;2023-03-23T16:24:12;25.90;79.40
22852;DHT22;11592;45.460;9.240;2023-03-23T16:26:39;25.10;80.70
22852;DHT22;11592;45.460;9.240;2023-03-23T16:29:14;24.20;83.20
22852;DHT22;11592;45.460;9.240;2023-03-23T16:31:54;23.30;85.50
22852;DHT22;11592;45.460;9.240;2023-03-23T16:34:21;22.30;88.70
22852;DHT22;11592;45.460;9.240;2023-03-23T16:36:48;21.70;90.60
22852;DHT22;11592;45.460;9.240;2023-03-23T16:39:15;21.50;91.40
22852;DHT22;11592;45.460;9.240;2023-03-23T16:41:44;21.10;92.20
22852;DHT22;11592;45.460;9.240;2023-03-23T16:44:11;20.90;92.80
22852;DHT22;11592;45.460;9.240;2023-03-23T16:46:38;20.90;93.40
22852;DHT22;11592;45.460;9.240;2023-03-23T16:49:05;20.80;93.70
22852;DHT22;11592;45.460;9.240;2023-03-23T16:51:32;20.60;94.10
22852;DHT22;11592;45.460;9.240;2023-03-23T16:53:59;20.60;94.40
22852;DHT22;11592;45.460;9.240;2023-03-23T16:56:26;20.60;94.70
22852;DHT22;11592;45.460;9.240;2023-03-23T16:58:53;20.60;94.80
22852;DHT22;11592;45.460;9.240;2023-03-23T17:01:19;20.40;95.40
22852;DHT22;11592;45.460;9.240;2023-03-23T17:03:46;20.30;95.90
22852;DHT22;11592;45.460;9.240;2023-03-23T17:06:13;20.30;95.90
22852;DHT22;11592;45.460;9.240;2023-03-23T17:08:40;20.20;96.30
22852;DHT22;11592;45.460;9.240;2023-03-23T17:11:07;20.00;96.70
22852;DHT22;11592;45.460;9.240;2023-03-23T17:13:36;19.90;96.70
22852;DHT22;11592;45.460;9.240;2023-03-23T17:16:02;19.90;96.70
22852;DHT22;11592;45.460;9.240;2023-03-23T17:18:29;19.70;96.90
22852;DHT22;11592;45.460;9.240;2023-03-23T17:20:57;19.60;97.40
22852;DHT22;11592;45.460;9.240;2023-03-23T17:23:24;19.40;97.90
22852;DHT22;11592;45.460;9.240;2023-03-23T17:25:51;19.10;98.50
22852;DHT22;11592;45.460;9.240;2023-03-23T17:28:19;19.10;99.00
22852;DHT22;11592;45.460;9.240;2023-03-23T17:30:46;19.10;99.30
22852;DHT22;11592;45.460;9.240;2023-03-23T17:33:13;19.20;99.40
22852;DHT22;11592;45.460;9.240;2023-03-23T17:35:41;19.10;99.60
22852;DHT22;11592;45.460;9.240;2023-03-23T17:38:08;19.00;99.90
22852;DHT22;11592;45.460;9.240;2023-03-23T17:40:35;18.90;99.90
22852;DHT22;11592;45.460;9.240;2023-03-23T17:43:02;18.80;99.90
22852;DHT22;11592;45.460;9.240;2023-03-23T17:45:29;18.90;99.90
22852;DHT22;11592;45.460;9.240;2023-03-23T17:47:55;18.80;99.90